createdAt,value
2023-03-05T00:00:26.974Z,36.08
2023-03-05T00:02:58.591Z,37.60
2023-03-05T00:05:30.192Z,35.88
2023-03-05T00:08:01.785Z,31.80
2023-03-05T00:10:33.316Z,34.22
2023-03-05T00:13:04.850Z,33.77
2023-03-05T00:15:41.212Z,32.83
2023-03-05T00:18:12.839Z,34.92
2023-03-05T00:20:46.346Z,38.92
2023-03-05T00:25:49.586Z,34.17
2023-03-05T00:28:21.273Z,33.55
2023-03-05T00:30:52.761Z,36.00
2023-03-05T00:33:24.272Z,36.10
2023-03-05T00:35:55.716Z,38.53
2023-03-05T00:38:27.212Z,35.60
2023-03-05T00:40:58.646Z,34.47
2023-03-05T00:43:30.746Z,37.35
2023-03-05T00:46:02.460Z,37.35
2023-03-05T00:48:34.284Z,35.92
2023-03-05T00:51:05.971Z,34.22
2023-03-05T00:53:37.626Z,33.28
2023-03-05T00:56:09.201Z,37.33
2023-03-05T00:58:40.697Z,34.50
2023-03-05T01:01:12.524Z,35.57
2023-03-05T01:03:44.068Z,33.53
2023-03-05T01:06:19.304Z,35.70
2023-03-05T01:08:51.035Z,34.03
2023-03-05T01:11:22.751Z,31.17
2023-03-05T01:13:54.316Z,34.55
2023-03-05T01:16:26.014Z,36.40
2023-03-05T01:18:57.586Z,43.15
2023-03-05T01:21:29.077Z,39.63
2023-03-05T01:24:00.706Z,31.53
2023-03-05T01:26:32.550Z,34.58
2023-03-05T01:29:04.687Z,34.88
2023-03-05T01:31:36.253Z,38.13
2023-03-05T01:34:07.892Z,37.60
2023-03-05T01:36:41.913Z,40.92
2023-03-05T01:39:13.725Z,39.05
2023-03-05T01:41:45.225Z,35.58
2023-03-05T01:44:26.087Z,36.03
2023-03-05T01:46:57.818Z,40.47
2023-03-05T01:49:40.678Z,41.20
2023-03-05T01:52:18.046Z,39.47
2023-03-05T01:55:04.623Z,39.13
2023-03-05T01:57:40.630Z,34.22
2023-03-05T02:00:17.380Z,36.45
2023-03-05T02:02:51.277Z,41.72
2023-03-05T02:05:27.139Z,33.45
2023-03-05T02:08:00.981Z,37.90
2023-03-05T02:10:48.016Z,34.10
2023-03-05T02:13:24.381Z,36.22
2023-03-05T02:15:59.153Z,41.92
2023-03-05T02:18:30.724Z,40.42
2023-03-05T02:21:06.692Z,34.33
2023-03-05T02:23:38.795Z,40.83
2023-03-05T02:26:10.854Z,40.65
2023-03-05T02:28:52.028Z,38.28
2023-03-05T02:31:25.499Z,35.92
2023-03-05T02:33:57.241Z,41.97
2023-03-05T02:36:29.082Z,36.90
2023-03-05T02:39:00.825Z,40.25
2023-03-05T02:41:32.386Z,35.42
2023-03-05T02:44:04.078Z,42.20
2023-03-05T02:46:35.644Z,42.47
2023-03-05T02:49:07.128Z,40.27
2023-03-05T02:51:38.610Z,36.20
2023-03-05T02:54:10.166Z,40.70
2023-03-05T02:56:43.418Z,35.77
2023-03-05T02:59:14.948Z,39.28
2023-03-05T03:01:46.396Z,43.63
2023-03-05T03:04:17.823Z,42.60
2023-03-05T03:06:49.345Z,38.17
2023-03-05T03:09:21.386Z,40.47
2023-03-05T03:11:53.300Z,41.90
2023-03-05T03:14:24.886Z,40.63
2023-03-05T03:16:56.627Z,41.33
2023-03-05T03:19:28.138Z,41.05
2023-03-05T03:21:59.772Z,34.77
2023-03-05T03:24:32.324Z,41.45
2023-03-05T03:27:04.438Z,41.28
2023-03-05T03:29:38.194Z,35.88
2023-03-05T03:32:09.752Z,38.85
2023-03-05T03:34:41.538Z,38.88
2023-03-05T03:37:13.285Z,40.72
2023-03-05T03:39:44.769Z,42.88
2023-03-05T03:42:20.640Z,43.43
2023-03-05T03:44:52.503Z,42.95
2023-03-05T03:47:24.062Z,35.17
2023-03-05T03:49:55.620Z,45.65
2023-03-05T03:52:27.556Z,41.38
2023-03-05T03:55:01.717Z,43.13
2023-03-05T03:57:33.560Z,44.42
2023-03-05T04:00:10.973Z,43.78
2023-03-05T04:02:42.578Z,43.55
2023-03-05T04:05:14.202Z,39.17
2023-03-05T04:07:45.755Z,49.88
2023-03-05T04:10:17.794Z,41.88
2023-03-05T04:12:49.382Z,39.88
2023-03-05T04:15:21.554Z,35.10
2023-03-05T04:17:53.052Z,36.90
2023-03-05T04:20:24.773Z,43.77
2023-03-05T04:22:56.380Z,41.30
2023-03-05T04:25:27.935Z,41.83
2023-03-05T04:27:59.461Z,43.75
2023-03-05T04:30:31.397Z,46.87
2023-03-05T04:33:03.034Z,36.70
2023-03-05T04:35:34.574Z,40.22
2023-03-05T04:38:06.225Z,45.83
2023-03-05T04:40:38.130Z,41.15
2023-03-05T04:43:09.656Z,48.33
2023-03-05T04:45:42.872Z,49.53
2023-03-05T04:48:14.436Z,43.58
2023-03-05T04:50:45.948Z,34.40
2023-03-05T04:53:17.475Z,42.80
2023-03-05T04:55:55.606Z,44.43
2023-03-05T04:58:27.894Z,43.65
2023-03-05T05:01:04.431Z,43.63
2023-03-05T05:03:35.973Z,42.05
2023-03-05T05:06:07.546Z,39.53
2023-03-05T05:08:39.069Z,38.95
2023-03-05T05:11:14.045Z,42.17
2023-03-05T05:13:45.686Z,43.08
2023-03-05T05:16:17.273Z,43.90
2023-03-05T05:18:48.892Z,38.92
2023-03-05T05:21:20.439Z,38.60
2023-03-05T05:23:51.999Z,40.47
2023-03-05T05:26:23.572Z,41.17
2023-03-05T05:28:55.136Z,48.10
2023-03-05T05:31:26.702Z,43.10
2023-03-05T05:33:58.309Z,41.17
2023-03-05T05:36:30.141Z,37.27
2023-03-05T05:39:01.668Z,36.85
2023-03-05T05:41:33.074Z,39.10
2023-03-05T05:44:04.789Z,48.13
2023-03-05T05:46:36.413Z,43.28
2023-03-05T05:49:08.001Z,37.72
2023-03-05T05:51:39.494Z,37.25
2023-03-05T05:54:14.837Z,37.00
2023-03-05T05:56:46.315Z,41.45
2023-03-05T05:59:17.823Z,38.37
2023-03-05T06:01:49.393Z,36.53
2023-03-05T06:04:20.950Z,41.17
2023-03-05T06:06:52.374Z,37.37
2023-03-05T06:09:23.868Z,43.03
2023-03-05T06:11:55.358Z,36.37
2023-03-05T06:14:26.947Z,37.00
2023-03-05T06:16:58.502Z,41.75
2023-03-05T06:19:30.061Z,37.92
2023-03-05T06:22:01.845Z,36.38
2023-03-05T06:24:33.349Z,49.67
2023-03-05T06:27:05.872Z,37.90
2023-03-05T06:29:37.388Z,36.67
2023-03-05T06:32:10.180Z,37.27
2023-03-05T06:34:41.752Z,36.45
2023-03-05T06:37:13.251Z,33.65
2023-03-05T06:39:44.750Z,33.13
2023-03-05T06:42:18.519Z,33.13
2023-03-05T06:44:50.064Z,37.70
2023-03-05T06:47:21.648Z,34.00
2023-03-05T16:18:13.962Z,15.00
2023-03-05T16:20:45.690Z,14.68
2023-03-05T17:37:21.079Z,18.17
2023-03-05T17:39:53.009Z,22.00
2023-03-05T17:42:24.548Z,18.13
2023-03-05T17:45:02.060Z,15.65
2023-03-05T17:47:35.295Z,15.63
2023-03-05T17:50:08.226Z,18.10
2023-03-05T17:52:41.236Z,15.27
2023-03-05T17:55:15.785Z,20.58
2023-03-05T17:57:48.274Z,27.63
2023-03-05T18:00:24.217Z,19.95
2023-03-05T18:02:57.642Z,14.02
2023-03-05T18:05:30.162Z,17.77
2023-03-05T18:08:03.750Z,17.92
2023-03-05T18:10:35.423Z,15.90
2023-03-05T18:13:07.343Z,19.67
2023-03-05T18:15:41.757Z,18.60
2023-03-05T18:18:18.005Z,21.20
2023-03-05T18:20:49.837Z,19.85
2023-03-05T18:23:21.591Z,22.40
2023-03-05T18:25:55.501Z,20.90
2023-03-05T18:28:28.007Z,21.05
2023-03-05T18:30:59.735Z,20.73
2023-03-05T18:33:32.904Z,15.25
2023-03-05T18:36:05.332Z,17.38
2023-03-05T18:41:19.585Z,14.45
2023-03-05T18:43:51.470Z,22.40
2023-03-05T18:46:23.270Z,13.07
2023-03-05T18:48:55.005Z,12.27
2023-03-05T18:51:28.390Z,15.75
2023-03-05T18:53:59.960Z,15.80
2023-03-05T18:57:49.180Z,16.45
2023-03-05T19:00:31.979Z,14.85
2023-03-05T19:03:05.803Z,15.52
2023-03-05T19:05:40.325Z,30.30
2023-03-05T19:08:14.682Z,67.50
2023-03-05T19:10:46.929Z,22.73
2023-03-05T19:13:34.534Z,26.98
2023-03-05T19:16:13.513Z,18.20
2023-03-05T19:19:18.035Z,22.40
2023-03-05T19:21:55.046Z,21.42
2023-03-05T19:24:30.604Z,23.73
2023-03-05T19:27:10.075Z,38.63
2023-03-05T19:29:42.923Z,28.90
2023-03-05T19:32:19.005Z,23.35
2023-03-05T19:34:54.206Z,19.38
2023-03-05T19:37:26.466Z,24.48
2023-03-05T19:39:58.037Z,20.45
2023-03-05T19:42:30.213Z,24.23
2023-03-05T19:45:13.613Z,24.27
2023-03-05T19:47:49.237Z,18.58
2023-03-05T19:50:20.795Z,25.50
2023-03-05T19:52:53.350Z,20.95
2023-03-05T19:55:25.326Z,20.15
2023-03-05T19:57:57.421Z,22.38
2023-03-05T20:00:39.386Z,24.73
2023-03-05T20:03:11.863Z,27.65
2023-03-05T20:05:46.373Z,20.65
2023-03-05T20:08:19.297Z,23.27
2023-03-05T20:10:51.158Z,26.52
2023-03-05T20:13:30.434Z,21.48
2023-03-05T20:16:02.100Z,25.42
2023-03-05T20:18:33.857Z,25.95
2023-03-05T20:21:06.325Z,25.23
2023-03-05T20:26:10.910Z,22.77
2023-03-05T20:28:42.678Z,22.58
2023-03-05T20:31:18.853Z,22.85
2023-03-05T20:33:50.642Z,23.35
2023-03-05T20:36:23.372Z,21.63
2023-03-05T20:38:56.324Z,28.10
2023-03-05T20:41:28.546Z,23.50
2023-03-05T20:44:01.195Z,23.27
2023-03-05T20:46:39.866Z,25.25
2023-03-05T20:49:12.422Z,23.65
2023-03-05T20:51:47.440Z,30.77
2023-03-05T20:54:22.359Z,22.10
2023-03-05T20:56:56.003Z,32.88
2023-03-05T20:59:28.550Z,27.67
2023-03-05T21:02:04.137Z,24.90
2023-03-05T21:04:35.710Z,25.63
2023-03-05T21:07:07.578Z,29.48
2023-03-05T21:09:39.739Z,29.60
2023-03-05T21:12:11.401Z,20.67
2023-03-05T21:14:45.514Z,24.60
2023-03-05T21:17:18.351Z,24.17
2023-03-05T21:19:51.656Z,22.25
2023-03-05T21:22:23.159Z,19.23
2023-03-05T21:25:03.658Z,23.87
2023-03-05T21:27:35.165Z,17.27
2023-03-05T21:30:07.215Z,20.50
2023-03-05T21:32:39.089Z,16.85
2023-03-05T21:35:16.207Z,21.67
2023-03-05T21:37:52.597Z,16.70
2023-03-05T21:40:24.948Z,17.02
2023-03-05T21:45:30.772Z,17.85
2023-03-05T21:48:02.688Z,17.80
2023-03-05T21:50:34.817Z,17.48
2023-03-05T21:53:06.718Z,21.25
2023-03-05T21:56:07.965Z,19.67
2023-03-05T21:58:39.592Z,17.33
2023-03-05T22:01:12.392Z,13.52
2023-03-05T22:03:44.291Z,17.27
2023-03-05T22:06:18.028Z,20.85
2023-03-05T22:08:49.668Z,19.00
2023-03-05T22:11:22.366Z,24.55
2023-03-05T22:13:54.132Z,15.98
2023-03-05T22:16:27.679Z,21.77
2023-03-05T22:18:59.563Z,17.70
2023-03-05T22:21:32.208Z,14.15
2023-03-05T22:24:03.896Z,16.95
2023-03-05T22:26:38.510Z,18.40
2023-03-05T22:29:11.646Z,17.05
2023-03-05T22:31:44.294Z,18.98
2023-03-05T22:34:16.081Z,16.80
2023-03-05T22:36:47.642Z,21.23
2023-03-05T22:39:19.189Z,18.23
2023-03-05T22:41:50.657Z,19.10
2023-03-05T22:44:24.933Z,16.38
2023-03-05T22:46:56.792Z,15.98
2023-03-05T22:49:28.297Z,15.95
2023-03-05T22:51:59.891Z,20.60
2023-03-05T22:54:31.367Z,27.63
2023-03-05T22:57:02.935Z,18.93
2023-03-05T22:59:34.429Z,15.70
2023-03-05T23:02:06.046Z,18.27
2023-03-05T23:04:53.512Z,16.73
2023-03-05T23:07:28.410Z,17.75
2023-03-05T23:10:08.189Z,14.57
2023-03-05T23:12:44.529Z,14.30
2023-03-05T23:15:23.265Z,19.27
2023-03-05T23:17:54.881Z,17.55
2023-03-05T23:20:32.679Z,21.83
2023-03-05T23:23:04.824Z,19.02
2023-03-05T23:25:36.676Z,21.92
2023-03-05T23:28:08.250Z,18.38
2023-03-05T23:30:39.769Z,14.77
2023-03-05T23:33:16.229Z,17.03
2023-03-05T23:35:54.360Z,14.55
2023-03-05T23:38:28.315Z,14.77
2023-03-05T23:41:03.592Z,15.50
2023-03-05T23:43:35.497Z,18.40
2023-03-05T23:46:10.764Z,16.67
2023-03-05T23:51:30.869Z,21.95
2023-03-05T23:54:02.333Z,18.53
2023-03-05T23:56:33.762Z,15.07
2023-03-05T23:59:05.250Z,12.93
